Promised Land, South Carolina
Current Conditions -  °F | °C
As of 8:30 AM on Saturday 01 Nov 2014 (Local Time) from KGRD Reporting Station
Unknown Precip Unknown Precip  
Wind Chill: 27°   Ceiling: 4200
Heat Index: 34°   Visibility: 10mi
Dew Point: 32°   Wind: 9mph
Humidity: 92%   Direction: 290°WNW
Pressure: 29.8"   Gusts: NA
Location:  34.036°N, 82.2186°W
Report Text: KGRD 011230Z AUTO 29008KT 250V330 10SM UP FEW005 FEW016 OVC042 01/00 A2980 RMK AO2 UPB15RAB18E30SNE15 P0001 T00110000
Loading
Personal Weather Stations






























Interactive Weather Map
Tropical Storm Tracking
New forecast layout! Learn more

10-Day Weather Forecast

Advertisements
Track Severe Weather on mobile